createdAt,value
2022-10-02T00:01:20.244Z,11.54
2022-10-02T00:03:49.659Z,11.54
2022-10-02T00:06:23.005Z,11.55
2022-10-02T00:08:55.843Z,11.55
2022-10-02T00:11:29.016Z,11.53
2022-10-02T00:14:01.585Z,11.54
2022-10-02T00:16:37.351Z,11.53
2022-10-02T00:19:05.574Z,11.51
2022-10-02T00:21:42.851Z,11.50
2022-10-02T00:24:18.930Z,11.48
2022-10-02T00:26:53.831Z,11.47
2022-10-02T00:29:33.391Z,11.47
2022-10-02T00:32:16.464Z,11.49
2022-10-02T00:34:57.427Z,11.48
2022-10-02T00:37:36.732Z,11.48
2022-10-02T00:40:23.454Z,11.52
2022-10-02T00:43:04.759Z,11.50
2022-10-02T00:46:00.020Z,11.52
2022-10-02T00:48:48.328Z,11.51
2022-10-02T00:51:33.194Z,11.51
2022-10-02T00:54:15.772Z,11.52
2022-10-02T00:56:51.980Z,11.50
2022-10-02T00:59:38.759Z,11.51
2022-10-02T01:02:13.150Z,11.50
2022-10-02T01:04:42.683Z,11.51
2022-10-02T01:07:14.022Z,11.51
2022-10-02T01:09:42.888Z,11.49
2022-10-02T01:12:11.145Z,11.50
2022-10-02T01:14:40.657Z,11.49
2022-10-02T01:17:23.820Z,11.50
2022-10-02T01:19:53.499Z,11.49
2022-10-02T01:22:29.241Z,11.48
2022-10-02T01:25:00.198Z,11.49
2022-10-02T01:27:28.582Z,11.49
2022-10-02T01:30:01.183Z,11.49
2022-10-02T01:32:29.600Z,11.48
2022-10-02T01:34:58.375Z,11.49
2022-10-02T01:37:29.810Z,11.48
2022-10-02T01:40:01.459Z,11.49
2022-10-02T01:42:30.101Z,11.52
2022-10-02T01:44:58.040Z,11.56
2022-10-02T01:47:35.139Z,11.54
2022-10-02T01:50:13.589Z,11.57
2022-10-02T01:52:50.818Z,11.59
2022-10-02T01:58:33.677Z,11.64
2022-10-02T02:01:10.553Z,11.65
2022-10-02T02:03:46.076Z,11.62
2022-10-02T02:06:22.696Z,11.64
2022-10-02T02:09:02.225Z,11.67
2022-10-02T02:11:31.387Z,11.67
2022-10-02T02:14:04.999Z,11.67
2022-10-02T02:16:39.862Z,11.70
2022-10-02T02:19:14.135Z,11.72
2022-10-02T02:21:46.945Z,11.74
2022-10-02T02:24:19.559Z,11.73
2022-10-02T02:26:48.328Z,11.74
2022-10-02T02:29:20.784Z,11.74
2022-10-02T02:31:52.086Z,11.73
2022-10-02T02:34:24.304Z,11.73
2022-10-02T02:36:57.559Z,11.74
2022-10-02T02:39:32.727Z,11.75
2022-10-02T02:42:04.130Z,11.75
2022-10-02T02:44:39.058Z,11.74
2022-10-02T02:47:12.781Z,11.74
2022-10-02T02:49:52.664Z,11.75
2022-10-02T02:52:23.804Z,11.75
2022-10-02T02:54:56.001Z,11.74
2022-10-02T02:57:29.550Z,11.73
2022-10-02T03:00:03.677Z,11.71
2022-10-02T03:02:31.831Z,11.71
2022-10-02T03:04:59.747Z,11.74
2022-10-02T03:07:27.852Z,11.73
2022-10-02T03:10:06.702Z,11.74
2022-10-02T03:12:46.724Z,11.73
2022-10-02T03:15:28.473Z,11.74
2022-10-02T03:18:10.185Z,11.71
2022-10-02T03:20:43.822Z,11.70
2022-10-02T03:23:22.510Z,11.70
2022-10-02T03:25:55.126Z,11.70
2022-10-02T03:28:53.867Z,11.70
2022-10-02T03:31:21.105Z,11.67
2022-10-02T03:33:52.127Z,11.65
2022-10-02T03:36:20.749Z,11.65
2022-10-02T03:39:06.264Z,11.66
2022-10-02T03:41:38.088Z,11.66
2022-10-02T03:44:05.984Z,11.64
2022-10-02T03:46:35.869Z,11.63
2022-10-02T03:49:04.002Z,11.63
2022-10-02T03:51:31.883Z,11.63
2022-10-02T03:53:59.891Z,11.61
2022-10-02T03:56:38.133Z,11.60
2022-10-02T03:59:14.986Z,11.61
2022-10-02T04:01:50.253Z,11.62
2022-10-02T04:04:23.891Z,11.61
2022-10-02T04:06:56.899Z,11.60
2022-10-02T04:09:31.556Z,11.60
2022-10-02T04:12:04.468Z,11.59
2022-10-02T04:14:39.621Z,11.58
2022-10-02T04:17:14.517Z,11.57
2022-10-02T04:19:47.358Z,11.54
2022-10-02T04:22:32.915Z,11.57
2022-10-02T04:25:06.559Z,11.59
2022-10-02T04:27:39.740Z,11.61
2022-10-02T04:30:11.509Z,11.61
2022-10-02T04:32:40.915Z,11.59
2022-10-02T04:35:15.438Z,11.59
2022-10-02T04:38:12.953Z,11.58
2022-10-02T04:40:56.342Z,11.59
2022-10-02T04:43:38.099Z,11.58
2022-10-02T04:46:17.881Z,11.55
2022-10-02T04:49:17.265Z,11.55
2022-10-02T04:52:24.209Z,11.55
2022-10-02T04:55:18.263Z,11.56
2022-10-02T04:58:00.788Z,11.54
2022-10-02T05:00:36.476Z,11.52
2022-10-02T05:03:21.725Z,11.52
2022-10-02T05:06:16.100Z,11.53
2022-10-02T05:08:58.310Z,11.52
2022-10-02T05:11:44.504Z,11.52
2022-10-02T05:14:40.060Z,11.49
2022-10-02T05:17:26.011Z,11.50
2022-10-02T05:20:06.713Z,11.47
2022-10-02T05:22:52.877Z,11.45
2022-10-02T05:25:48.736Z,11.47
2022-10-02T05:28:43.768Z,11.46
2022-10-02T05:31:22.205Z,11.45
2022-10-02T05:34:02.571Z,11.46
2022-10-02T05:36:55.448Z,11.45
2022-10-02T05:39:29.273Z,11.42
2022-10-02T05:42:05.838Z,11.45
2022-10-02T05:44:39.476Z,11.45
2022-10-02T05:47:14.460Z,11.45
2022-10-02T05:49:49.792Z,11.47
2022-10-02T05:52:22.143Z,11.46
2022-10-02T05:54:57.136Z,11.45
2022-10-02T05:57:32.261Z,11.46
2022-10-02T06:00:22.120Z,11.49
2022-10-02T06:02:58.217Z,11.49
2022-10-02T06:05:31.509Z,11.51
2022-10-02T06:08:03.684Z,11.52
2022-10-02T06:10:44.051Z,11.51
2022-10-02T06:13:16.836Z,11.50
2022-10-02T06:15:50.712Z,11.52
2022-10-02T06:18:22.466Z,11.53
2022-10-02T06:20:55.276Z,11.54
2022-10-02T06:23:27.808Z,11.54
2022-10-02T06:26:00.999Z,11.54
2022-10-02T06:28:35.060Z,11.54
2022-10-02T06:31:11.503Z,11.57
2022-10-02T06:33:39.591Z,11.57
2022-10-02T06:36:24.623Z,11.61
2022-10-02T06:39:11.051Z,11.62
2022-10-02T06:41:48.261Z,11.64
2022-10-02T06:44:23.752Z,11.65
2022-10-02T06:47:06.861Z,11.68
2022-10-02T06:49:48.224Z,11.70
2022-10-02T06:52:27.577Z,11.72
2022-10-02T06:55:11.218Z,11.73
2022-10-02T06:57:56.859Z,11.75
2022-10-02T07:00:25.427Z,11.77
2022-10-02T07:03:17.083Z,11.78
2022-10-02T07:05:55.223Z,11.77
2022-10-02T07:08:37.416Z,11.80
2022-10-02T07:11:15.788Z,11.80
2022-10-02T07:14:08.873Z,11.84
2022-10-02T07:16:52.007Z,11.84
2022-10-02T07:19:40.830Z,11.87
2022-10-02T07:22:43.515Z,11.90
2022-10-02T07:25:33.068Z,11.89
2022-10-02T07:28:11.900Z,11.92
2022-10-02T07:30:56.732Z,11.93
2022-10-02T07:33:35.995Z,11.95
2022-10-02T07:36:10.579Z,11.96
2022-10-02T07:38:56.230Z,11.99
2022-10-02T07:42:02.731Z,12.05
2022-10-02T07:45:00.488Z,12.10
2022-10-02T07:47:48.267Z,12.15
2022-10-02T07:50:23.698Z,12.20
2022-10-02T07:52:58.300Z,12.26
2022-10-02T07:55:27.778Z,12.28
2022-10-02T07:58:02.363Z,12.32
2022-10-02T08:00:33.499Z,12.38
2022-10-02T08:03:09.468Z,12.36
2022-10-02T08:05:42.432Z,12.40
2022-10-02T08:08:19.341Z,12.45
2022-10-02T08:10:53.455Z,12.50
2022-10-02T08:13:28.896Z,12.50
2022-10-02T08:15:57.535Z,12.52
2022-10-02T08:18:35.027Z,12.55
2022-10-02T08:21:05.920Z,12.53
2022-10-02T08:23:40.361Z,12.56
2022-10-02T08:26:13.658Z,12.59
2022-10-02T08:28:46.378Z,12.60
2022-10-02T08:31:15.924Z,12.64
2022-10-02T08:33:45.461Z,12.66
2022-10-02T08:36:33.911Z,12.74
2022-10-02T08:39:14.205Z,12.81
2022-10-02T08:42:32.427Z,12.89
2022-10-02T08:45:16.183Z,12.94
2022-10-02T08:48:11.451Z,13.05
2022-10-02T08:51:10.314Z,13.10
2022-10-02T08:54:09.442Z,13.14
2022-10-02T08:56:47.771Z,13.19
2022-10-02T08:59:48.199Z,13.24
2022-10-02T09:02:55.473Z,13.29
2022-10-02T09:06:06.547Z,13.35
2022-10-02T09:09:10.653Z,13.51
2022-10-02T09:11:59.145Z,13.64
2022-10-02T09:14:45.147Z,13.80
2022-10-02T09:17:18.615Z,13.91
2022-10-02T09:19:56.691Z,14.01
2022-10-02T09:22:49.972Z,14.21
2022-10-02T09:25:37.783Z,14.27
2022-10-02T09:28:42.540Z,14.36
2022-10-02T09:31:43.188Z,14.51
2022-10-02T09:34:48.055Z,14.67
2022-10-02T09:37:58.616Z,14.85
2022-10-02T09:40:56.774Z,15.04
2022-10-02T09:43:53.468Z,15.13
2022-10-02T09:47:02.759Z,15.20
2022-10-02T09:50:14.718Z,15.21
2022-10-02T09:53:13.823Z,15.22
2022-10-02T09:56:29.184Z,15.25
2022-10-02T09:59:50.028Z,15.25
2022-10-02T10:02:34.501Z,15.28
2022-10-02T10:05:32.558Z,15.37
2022-10-02T10:08:26.805Z,15.38
2022-10-02T10:11:10.577Z,15.39
2022-10-02T10:14:09.547Z,15.36
2022-10-02T10:17:22.007Z,15.38
2022-10-02T10:20:27.259Z,15.49
2022-10-02T10:23:36.047Z,15.60
2022-10-02T10:26:36.952Z,15.70
2022-10-02T10:29:50.798Z,15.70
2022-10-02T10:32:52.237Z,15.74
2022-10-02T10:36:02.297Z,15.54
2022-10-02T10:38:52.080Z,15.36
2022-10-02T10:41:52.567Z,15.35
2022-10-02T10:44:41.988Z,15.38
2022-10-02T10:47:34.960Z,15.42
2022-10-02T10:50:32.024Z,15.31
2022-10-02T10:53:23.216Z,15.28
2022-10-02T10:56:13.332Z,15.28
2022-10-02T10:58:59.429Z,15.27
2022-10-02T11:01:40.527Z,15.28
2022-10-02T11:04:39.327Z,15.17
2022-10-02T11:07:23.533Z,15.13
2022-10-02T11:10:10.009Z,15.04
2022-10-02T11:12:57.443Z,15.09
2022-10-02T11:15:49.900Z,15.04
2022-10-02T11:18:34.562Z,14.93
2022-10-02T11:21:40.021Z,14.91
2022-10-02T11:24:43.869Z,14.76
2022-10-02T11:27:28.316Z,14.63
2022-10-02T11:30:17.053Z,14.53
2022-10-02T11:33:11.731Z,14.57
2022-10-02T11:35:54.578Z,14.54
2022-10-02T11:38:39.012Z,14.56
2022-10-02T11:41:33.175Z,14.52
2022-10-02T11:44:17.027Z,14.51
2022-10-02T11:47:14.858Z,14.37
2022-10-02T11:50:03.435Z,14.35
2022-10-02T11:52:55.417Z,14.22
2022-10-02T11:55:39.208Z,14.18
2022-10-02T11:58:20.147Z,14.10
2022-10-02T12:01:32.133Z,14.16
2022-10-02T12:04:23.055Z,14.01
2022-10-02T12:07:17.337Z,14.00
2022-10-02T12:10:00.266Z,13.86
2022-10-02T12:12:42.157Z,13.87
2022-10-02T12:15:22.007Z,13.90
2022-10-02T12:18:05.758Z,13.86
2022-10-02T12:21:08.136Z,13.81
2022-10-02T12:24:06.371Z,13.74
2022-10-02T12:27:00.909Z,13.72
2022-10-02T12:29:43.623Z,13.63
2022-10-02T12:32:23.208Z,13.55
2022-10-02T12:35:03.927Z,13.54
2022-10-02T12:37:41.933Z,13.50
2022-10-02T12:40:18.996Z,13.43
2022-10-02T12:43:12.994Z,13.40
2022-10-02T12:46:18.974Z,13.25
2022-10-02T12:49:13.180Z,13.16
2022-10-02T12:51:56.211Z,13.23
2022-10-02T12:55:05.475Z,13.25
2022-10-02T12:57:55.940Z,13.12
2022-10-02T13:00:26.711Z,13.14
2022-10-02T13:03:40.236Z,13.05
2022-10-02T13:06:38.137Z,13.08
2022-10-02T13:09:18.650Z,13.10
2022-10-02T13:12:12.615Z,13.09
2022-10-02T13:15:04.475Z,13.00
2022-10-02T13:17:46.200Z,13.02
2022-10-02T13:20:26.365Z,12.96
2022-10-02T13:23:07.580Z,12.95
2022-10-02T13:25:45.549Z,12.94
2022-10-02T13:28:33.449Z,12.92
2022-10-02T13:31:12.413Z,13.02
2022-10-02T13:34:00.217Z,12.96
2022-10-02T13:36:41.824Z,13.10
2022-10-02T13:39:29.083Z,13.08
2022-10-02T13:42:09.679Z,13.15
2022-10-02T13:44:45.884Z,13.18
2022-10-02T13:47:31.554Z,13.33
2022-10-02T13:50:19.672Z,13.22
2022-10-02T13:53:03.124Z,13.23
2022-10-02T13:55:35.368Z,13.29
2022-10-02T13:58:36.014Z,13.27
2022-10-02T14:01:17.064Z,13.26
2022-10-02T14:04:14.067Z,13.17
2022-10-02T14:06:49.859Z,13.14
2022-10-02T14:09:42.915Z,13.06
2022-10-02T14:12:29.784Z,12.89
2022-10-02T14:15:11.395Z,13.01
2022-10-02T14:17:56.256Z,13.01
2022-10-02T14:20:38.600Z,12.94
2022-10-02T14:23:27.112Z,12.98
2022-10-02T14:26:05.711Z,12.90
2022-10-02T14:28:50.674Z,12.80
2022-10-02T14:31:47.699Z,12.79
2022-10-02T14:34:50.754Z,12.76
2022-10-02T14:37:36.366Z,12.79
2022-10-02T14:40:13.744Z,12.85
2022-10-02T14:43:13.560Z,12.82
2022-10-02T14:46:03.049Z,12.75
2022-10-02T14:48:50.975Z,12.75
2022-10-02T14:51:34.692Z,12.73
2022-10-02T14:54:29.535Z,12.68
2022-10-02T14:57:24.491Z,12.64
2022-10-02T15:00:18.655Z,12.62
2022-10-02T15:03:14.478Z,12.61
2022-10-02T15:06:03.505Z,12.62
2022-10-02T15:08:37.077Z,12.66
2022-10-02T15:11:19.128Z,12.63
2022-10-02T15:13:53.390Z,12.59
2022-10-02T15:16:44.845Z,12.59
2022-10-02T15:19:20.139Z,12.59
2022-10-02T15:21:56.393Z,12.53
2022-10-02T15:24:31.486Z,12.49
2022-10-02T15:27:21.939Z,12.51
2022-10-02T15:30:04.586Z,12.44
2022-10-02T15:32:50.859Z,12.46
2022-10-02T15:35:28.543Z,12.45
2022-10-02T15:38:21.774Z,12.45
2022-10-02T15:41:05.349Z,12.42
2022-10-02T15:43:46.448Z,12.42
2022-10-02T15:46:21.854Z,12.42
2022-10-02T15:48:59.685Z,12.46
2022-10-02T15:51:45.976Z,12.45
2022-10-02T15:54:27.408Z,12.47
2022-10-02T15:57:08.700Z,12.43
2022-10-02T16:00:02.456Z,12.47
2022-10-02T16:02:57.681Z,12.47
2022-10-02T16:05:58.111Z,12.42
2022-10-02T16:09:04.252Z,12.39
2022-10-02T16:11:50.609Z,12.42
2022-10-02T16:14:29.012Z,12.37
2022-10-02T16:17:12.701Z,12.39
2022-10-02T16:19:58.621Z,12.38
2022-10-02T16:22:43.608Z,12.36
2022-10-02T16:25:26.237Z,12.33
2022-10-02T16:28:05.539Z,12.30
2022-10-02T16:30:43.195Z,12.30
2022-10-02T16:33:21.243Z,12.29
2022-10-02T16:36:03.545Z,12.29
2022-10-02T16:38:45.229Z,12.25
2022-10-02T16:41:24.830Z,12.21
2022-10-02T16:44:03.568Z,12.24
2022-10-02T16:46:38.126Z,12.19
2022-10-02T16:49:20.778Z,12.20
2022-10-02T16:51:56.551Z,12.17
2022-10-02T16:54:31.356Z,12.19
2022-10-02T16:57:05.265Z,12.15
2022-10-02T16:59:43.937Z,12.13
2022-10-02T17:02:19.751Z,12.14
2022-10-02T17:05:03.278Z,12.10
2022-10-02T17:07:44.809Z,12.08
2022-10-02T17:10:23.580Z,12.10
2022-10-02T17:12:59.787Z,12.08
2022-10-02T17:15:35.579Z,12.08
2022-10-02T17:18:14.396Z,12.08
2022-10-02T17:20:48.311Z,12.07
2022-10-02T17:23:24.556Z,12.06
2022-10-02T17:26:02.990Z,12.08
2022-10-02T17:28:39.138Z,12.04
2022-10-02T17:31:35.768Z,12.03
2022-10-02T17:34:19.872Z,12.02
2022-10-02T17:36:55.344Z,12.03
2022-10-02T17:39:54.803Z,12.01
2022-10-02T17:42:33.978Z,11.99
2022-10-02T17:45:16.723Z,11.99
2022-10-02T17:48:07.438Z,12.00
2022-10-02T17:50:47.440Z,12.00
2022-10-02T17:53:47.638Z,11.99
2022-10-02T17:56:29.664Z,11.99
2022-10-02T17:59:17.677Z,11.98
2022-10-02T18:01:55.266Z,11.94
2022-10-02T18:04:33.692Z,11.96
2022-10-02T18:07:19.467Z,11.94
2022-10-02T18:10:04.543Z,11.97
2022-10-02T18:12:54.040Z,11.93
2022-10-02T18:15:28.808Z,11.96
2022-10-02T18:18:17.817Z,11.95
2022-10-02T18:21:01.270Z,11.94
2022-10-02T18:23:48.448Z,11.95
2022-10-02T18:26:33.799Z,11.92
2022-10-02T18:29:20.407Z,11.94
2022-10-02T18:32:38.810Z,11.91
2022-10-02T18:35:23.250Z,11.88
2022-10-02T18:38:01.516Z,11.88
2022-10-02T18:40:31.885Z,11.90
2022-10-02T18:43:22.528Z,11.88
2022-10-02T18:46:01.966Z,11.86
2022-10-02T18:49:00.217Z,11.88
2022-10-02T18:52:08.656Z,11.88
2022-10-02T18:54:47.535Z,11.88
2022-10-02T18:57:34.212Z,11.87
2022-10-02T19:00:17.166Z,11.85
2022-10-02T19:03:02.837Z,11.82
2022-10-02T19:05:35.377Z,11.81
2022-10-02T19:08:18.816Z,11.82
2022-10-02T19:10:48.063Z,11.82
2022-10-02T19:13:23.718Z,11.82
2022-10-02T19:15:54.583Z,11.82
2022-10-02T19:18:25.268Z,11.83
2022-10-02T19:20:57.720Z,11.84
2022-10-02T19:23:32.808Z,11.79
2022-10-02T19:26:05.845Z,11.82
2022-10-02T19:28:40.094Z,11.83
2022-10-02T19:31:10.540Z,11.81
2022-10-02T19:33:46.257Z,11.82
2022-10-02T19:36:18.970Z,11.83
2022-10-02T19:38:53.339Z,11.82
2022-10-02T19:41:23.413Z,11.83
2022-10-02T19:43:56.497Z,11.84
2022-10-02T19:46:38.829Z,11.82
2022-10-02T19:49:08.348Z,11.81
2022-10-02T19:51:44.723Z,11.81
2022-10-02T19:54:19.427Z,11.81
2022-10-02T19:56:58.670Z,11.81
2022-10-02T19:59:32.220Z,11.79
2022-10-02T20:02:13.684Z,11.79
2022-10-02T20:04:41.698Z,11.79
2022-10-02T20:07:18.891Z,11.77
2022-10-02T20:09:50.171Z,11.79
2022-10-02T20:12:23.111Z,11.80
2022-10-02T20:14:56.226Z,11.77
2022-10-02T20:17:24.787Z,11.78
2022-10-02T20:19:57.858Z,11.78
2022-10-02T20:22:34.126Z,11.78
2022-10-02T20:25:09.984Z,11.78
2022-10-02T20:27:43.732Z,11.74
2022-10-02T20:30:15.375Z,11.72
2022-10-02T20:32:52.944Z,11.76
2022-10-02T20:35:29.226Z,11.76
2022-10-02T20:37:59.911Z,11.75
2022-10-02T20:40:32.632Z,11.78
2022-10-02T20:43:06.094Z,11.78
2022-10-02T20:45:40.606Z,11.76
2022-10-02T20:49:08.089Z,11.76
2022-10-02T20:52:13.354Z,11.73
2022-10-02T20:54:51.574Z,11.74
2022-10-02T20:58:07.022Z,11.73
2022-10-02T21:00:52.383Z,11.67
2022-10-02T21:04:13.052Z,11.66
2022-10-02T21:07:05.874Z,11.67
2022-10-02T21:09:59.715Z,11.66
2022-10-02T21:13:12.347Z,11.63
2022-10-02T21:16:10.875Z,11.61
2022-10-02T21:19:14.321Z,11.63
2022-10-02T21:22:36.096Z,11.64
2022-10-02T21:25:55.377Z,11.63
2022-10-02T21:28:51.533Z,11.58
2022-10-02T21:31:38.480Z,11.59
2022-10-02T21:34:26.661Z,11.55
2022-10-02T21:36:59.680Z,11.48
2022-10-02T21:39:52.188Z,11.46
2022-10-02T21:42:57.984Z,11.43
2022-10-02T21:45:50.489Z,11.43
2022-10-02T21:48:52.416Z,11.39
2022-10-02T21:51:55.656Z,11.38
2022-10-02T21:54:53.573Z,11.36
2022-10-02T21:58:06.513Z,11.35
2022-10-02T22:00:53.956Z,11.31
2022-10-02T22:03:50.494Z,11.29
2022-10-02T22:06:37.467Z,11.28
2022-10-02T22:09:19.709Z,11.22
2022-10-02T22:12:06.943Z,11.21
2022-10-02T22:14:39.455Z,11.17
2022-10-02T22:17:18.565Z,11.14
2022-10-02T22:20:07.378Z,11.07
2022-10-02T22:22:49.065Z,11.06
2022-10-02T22:25:33.821Z,11.04
2022-10-02T22:28:16.411Z,11.00
2022-10-02T22:31:07.473Z,11.02
2022-10-02T22:33:55.052Z,10.92
2022-10-02T22:36:37.273Z,10.90
2022-10-02T22:39:10.651Z,10.83
2022-10-02T22:41:44.423Z,10.79
2022-10-02T22:44:23.413Z,10.72
2022-10-02T22:46:57.037Z,10.72
2022-10-02T22:49:31.327Z,10.69
2022-10-02T22:52:04.934Z,10.67
2022-10-02T22:54:41.003Z,10.66
2022-10-02T22:57:19.280Z,10.62
2022-10-02T22:59:55.693Z,10.62
2022-10-02T23:02:29.508Z,10.60
2022-10-02T23:05:06.364Z,10.58
2022-10-02T23:07:44.559Z,10.58
2022-10-02T23:10:23.063Z,10.60
2022-10-02T23:13:01.213Z,10.58
2022-10-02T23:15:42.585Z,10.55
2022-10-02T23:18:27.309Z,10.50
2022-10-02T23:21:02.988Z,10.49
2022-10-02T23:23:35.932Z,10.41
2022-10-02T23:26:09.869Z,10.38
2022-10-02T23:28:46.683Z,10.33
2022-10-02T23:31:30.387Z,10.23
2022-10-02T23:34:08.541Z,10.21
2022-10-02T23:36:47.388Z,10.20
2022-10-02T23:39:20.384Z,10.21
2022-10-02T23:41:51.577Z,10.23
2022-10-02T23:44:29.206Z,10.28
2022-10-02T23:47:15.700Z,10.22
2022-10-02T23:49:47.123Z,10.23
2022-10-02T23:52:36.132Z,10.22
2022-10-02T23:55:24.828Z,10.21
2022-10-02T23:58:13.418Z,10.18
